sensor_id;sensor_type;location;lat;lon;timestamp;pressure;altitude;pressure_sealevel;temperature;humidity
40596;BME280;26304;48.794;9.820;2023-03-03T00:00:01;96411.84;;;16.55;43.85
40596;BME280;26304;48.794;9.820;2023-03-03T00:05:44;96415.16;;;16.52;43.81
40596;BME280;26304;48.794;9.820;2023-03-03T00:11:26;96422.66;;;16.50;43.32
40596;BME280;26304;48.794;9.820;2023-03-03T00:17:15;96422.94;;;16.45;43.88
40596;BME280;26304;48.794;9.820;2023-03-03T00:23:18;96418.81;;;16.44;43.58
40596;BME280;26304;48.794;9.820;2023-03-03T00:29:01;96419.91;;;16.43;43.50
40596;BME280;26304;48.794;9.820;2023-03-03T00:35:23;96422.13;;;16.41;43.86
40596;BME280;26304;48.794;9.820;2023-03-03T00:41:13;96425.06;;;16.36;44.32
40596;BME280;26304;48.794;9.820;2023-03-03T00:47:02;96422.81;;;16.34;43.84
40596;BME280;26304;48.794;9.820;2023-03-03T00:53:01;96419.72;;;16.28;44.01
40596;BME280;26304;48.794;9.820;2023-03-03T00:58:44;96413.41;;;16.33;43.70
40596;BME280;26304;48.794;9.820;2023-03-03T01:04:28;96410.75;;;16.29;44.34
40596;BME280;26304;48.794;9.820;2023-03-03T01:10:12;96415.16;;;16.25;43.70
40596;BME280;26304;48.794;9.820;2023-03-03T01:15:54;96404.28;;;16.23;44.12
40596;BME280;26304;48.794;9.820;2023-03-03T01:21:37;96403.88;;;16.21;43.88
40596;BME280;26304;48.794;9.820;2023-03-03T01:27:21;96405.00;;;16.20;43.94
40596;BME280;26304;48.794;9.820;2023-03-03T01:33:03;96405.72;;;16.21;43.63
40596;BME280;26304;48.794;9.820;2023-03-03T01:38:46;96404.59;;;16.18;44.33
40596;BME280;26304;48.794;9.820;2023-03-03T01:44:30;96405.34;;;16.19;44.39
40596;BME280;26304;48.794;9.820;2023-03-03T01:50:14;96410.13;;;16.13;44.11
40596;BME280;26304;48.794;9.820;2023-03-03T01:56:02;96403.78;;;16.14;44.34
40596;BME280;26304;48.794;9.820;2023-03-03T02:01:48;96395.47;;;16.08;44.52
40596;BME280;26304;48.794;9.820;2023-03-03T02:07:30;96392.09;;;16.11;43.89
40596;BME280;26304;48.794;9.820;2023-03-03T02:13:13;96388.03;;;16.14;44.25
40596;BME280;26304;48.794;9.820;2023-03-03T02:18:57;96382.69;;;16.07;44.27
40596;BME280;26304;48.794;9.820;2023-03-03T02:24:42;96376.06;;;16.74;43.12
40596;BME280;26304;48.794;9.820;2023-03-03T02:30:27;96381.78;;;17.99;40.79
40596;BME280;26304;48.794;9.820;2023-03-03T02:36:13;96386.41;;;18.17;40.46
40596;BME280;26304;48.794;9.820;2023-03-03T02:42:01;96376.19;;;18.04;40.81
40596;BME280;26304;48.794;9.820;2023-03-03T02:47:49;96381.75;;;17.92;41.46
40596;BME280;26304;48.794;9.820;2023-03-03T02:53:32;96382.03;;;17.83;41.50
40596;BME280;26304;48.794;9.820;2023-03-03T02:59:14;96387.75;;;17.89;41.41
40596;BME280;26304;48.794;9.820;2023-03-03T03:04:58;96394.91;;;18.55;40.57
40596;BME280;26304;48.794;9.820;2023-03-03T03:10:40;96396.72;;;19.53;39.29
40596;BME280;26304;48.794;9.820;2023-03-03T03:16:23;96400.91;;;20.08;38.40
40596;BME280;26304;48.794;9.820;2023-03-03T03:22:07;96388.06;;;19.99;38.59
40596;BME280;26304;48.794;9.820;2023-03-03T03:27:49;96391.44;;;20.32;38.31
40596;BME280;26304;48.794;9.820;2023-03-03T03:33:32;96400.41;;;20.63;37.95
40596;BME280;26304;48.794;9.820;2023-03-03T03:39:16;96399.63;;;20.74;38.14
40596;BME280;26304;48.794;9.820;2023-03-03T03:44:59;96407.16;;;20.86;38.05
40596;BME280;26304;48.794;9.820;2023-03-03T03:50:41;96395.16;;;21.37;37.23
40596;BME280;26304;48.794;9.820;2023-03-03T03:56:25;96400.47;;;21.37;37.48
40596;BME280;26304;48.794;9.820;2023-03-03T04:02:07;96398.94;;;21.40;37.50
40596;BME280;26304;48.794;9.820;2023-03-03T04:07:50;96411.63;;;21.70;37.32
40596;BME280;26304;48.794;9.820;2023-03-03T04:13:33;96410.88;;;21.66;37.32
40596;BME280;26304;48.794;9.820;2023-03-03T04:19:16;96410.41;;;21.19;38.02
40596;BME280;26304;48.794;9.820;2023-03-03T04:24:58;96407.22;;;20.64;39.17
40596;BME280;26304;48.794;9.820;2023-03-03T04:30:46;96405.41;;;20.25;39.90
40596;BME280;26304;48.794;9.820;2023-03-03T04:36:29;96409.59;;;19.98;40.28
40596;BME280;26304;48.794;9.820;2023-03-03T04:42:11;96405.06;;;19.98;40.12
40596;BME280;26304;48.794;9.820;2023-03-03T04:47:55;96400.91;;;19.93;40.39
40596;BME280;26304;48.794;9.820;2023-03-03T04:53:38;96411.81;;;20.28;39.60
40596;BME280;26304;48.794;9.820;2023-03-03T04:59:20;96417.78;;;20.64;39.17
40596;BME280;26304;48.794;9.820;2023-03-03T05:05:05;96422.19;;;20.96;38.67
40596;BME280;26304;48.794;9.820;2023-03-03T05:10:50;96435.91;;;20.70;39.18
40596;BME280;26304;48.794;9.820;2023-03-03T05:16:33;96424.25;;;20.31;39.91
40596;BME280;26304;48.794;9.820;2023-03-03T05:22:17;96433.72;;;20.00;40.50
40596;BME280;26304;48.794;9.820;2023-03-03T05:27:59;96445.03;;;19.96;40.53
40596;BME280;26304;48.794;9.820;2023-03-03T05:33:42;96443.50;;;19.95;40.72
40596;BME280;26304;48.794;9.820;2023-03-03T05:39:25;96438.22;;;19.92;40.70
40596;BME280;26304;48.794;9.820;2023-03-03T05:45:09;96454.78;;;19.78;40.90
40596;BME280;26304;48.794;9.820;2023-03-03T05:50:51;96452.84;;;19.57;41.23
40596;BME280;26304;48.794;9.820;2023-03-03T05:56:35;96462.97;;;19.33;41.88
40596;BME280;26304;48.794;9.820;2023-03-03T06:02:17;96463.38;;;19.39;41.87
40596;BME280;26304;48.794;9.820;2023-03-03T06:08:00;96466.34;;;19.30;42.17
40596;BME280;26304;48.794;9.820;2023-03-03T06:13:43;96468.56;;;19.17;42.52
40596;BME280;26304;48.794;9.820;2023-03-03T06:19:26;96471.16;;;19.06;43.17
40596;BME280;26304;48.794;9.820;2023-03-03T06:25:09;96473.41;;;18.97;43.64
40596;BME280;26304;48.794;9.820;2023-03-03T06:30:53;96485.34;;;18.84;44.21
40596;BME280;26304;48.794;9.820;2023-03-03T06:36:36;96484.88;;;18.71;44.48
40596;BME280;26304;48.794;9.820;2023-03-03T06:42:19;96503.47;;;18.96;44.00
40596;BME280;26304;48.794;9.820;2023-03-03T06:48:03;96504.66;;;19.10;43.88
40596;BME280;26304;48.794;9.820;2023-03-03T06:53:47;96504.28;;;19.11;43.24
40596;BME280;26304;48.794;9.820;2023-03-03T06:59:29;96513.31;;;19.06;43.15
40596;BME280;26304;48.794;9.820;2023-03-03T07:05:15;96516.31;;;19.05;43.21
40596;BME280;26304;48.794;9.820;2023-03-03T07:11:01;96514.75;;;18.97;43.38
40596;BME280;26304;48.794;9.820;2023-03-03T07:16:56;96525.66;;;18.95;43.76
40596;BME280;26304;48.794;9.820;2023-03-03T07:22:41;96529.00;;;18.85;43.92
40596;BME280;26304;48.794;9.820;2023-03-03T07:28:24;96525.97;;;18.83;43.93
40596;BME280;26304;48.794;9.820;2023-03-03T07:34:17;96527.19;;;18.93;43.87
40596;BME280;26304;48.794;9.820;2023-03-03T07:40:07;96533.91;;;18.86;44.67
40596;BME280;26304;48.794;9.820;2023-03-03T07:46:23;96530.91;;;18.84;44.72
40596;BME280;26304;48.794;9.820;2023-03-03T07:52:19;96537.59;;;18.78;45.08
40596;BME280;26304;48.794;9.820;2023-03-03T07:58:21;96546.59;;;18.74;44.80
40596;BME280;26304;48.794;9.820;2023-03-03T08:04:10;96542.44;;;18.69;45.20
40596;BME280;26304;48.794;9.820;2023-03-03T08:09:58;96535.25;;;18.62;44.46
40596;BME280;26304;48.794;9.820;2023-03-03T08:15:43;96541.88;;;18.45;46.38
40596;BME280;26304;48.794;9.820;2023-03-03T08:21:26;96542.31;;;18.51;45.73
40596;BME280;26304;48.794;9.820;2023-03-03T08:27:09;96546.53;;;18.66;44.71
40596;BME280;26304;48.794;9.820;2023-03-03T08:32:53;96549.06;;;18.48;45.39
40596;BME280;26304;48.794;9.820;2023-03-03T08:38:35;96557.28;;;18.43;45.46
40596;BME280;26304;48.794;9.820;2023-03-03T08:44:18;96557.94;;;18.33;45.93
40596;BME280;26304;48.794;9.820;2023-03-03T08:50:02;96559.81;;;18.29;45.50
40596;BME280;26304;48.794;9.820;2023-03-03T08:55:45;96564.69;;;18.27;45.46
40596;BME280;26304;48.794;9.820;2023-03-03T09:01:27;96564.69;;;18.27;45.02
40596;BME280;26304;48.794;9.820;2023-03-03T09:07:11;96573.69;;;18.26;45.05
40596;BME280;26304;48.794;9.820;2023-03-03T09:12:54;96572.13;;;18.21;45.14
40596;BME280;26304;48.794;9.820;2023-03-03T09:18:38;96581.91;;;18.21;44.95
40596;BME280;26304;48.794;9.820;2023-03-03T09:24:25;96597.34;;;18.22;44.11
40596;BME280;26304;48.794;9.820;2023-03-03T09:30:26;96596.91;;;18.17;44.35
40596;BME280;26304;48.794;9.820;2023-03-03T09:36:19;96601.44;;;18.20;44.02
40596;BME280;26304;48.794;9.820;2023-03-03T09:42:39;96599.97;;;18.22;44.15
40596;BME280;26304;48.794;9.820;2023-03-03T09:48:43;96599.13;;;18.14;43.69
40596;BME280;26304;48.794;9.820;2023-03-03T09:54:38;96593.09;;;18.14;43.92
40596;BME280;26304;48.794;9.820;2023-03-03T10:00:34;96597.22;;;18.11;43.75
40596;BME280;26304;48.794;9.820;2023-03-03T10:06:24;96603.59;;;18.10;44.37
40596;BME280;26304;48.794;9.820;2023-03-03T10:12:13;96598.34;;;18.10;43.45
40596;BME280;26304;48.794;9.820;2023-03-03T10:18:11;96605.84;;;18.08;43.80
40596;BME280;26304;48.794;9.820;2023-03-03T10:24:03;96592.31;;;18.10;43.93
40596;BME280;26304;48.794;9.820;2023-03-03T10:29:58;96600.22;;;18.10;43.34
40596;BME280;26304;48.794;9.820;2023-03-03T10:35:55;96610.34;;;18.08;43.52
40596;BME280;26304;48.794;9.820;2023-03-03T10:41:55;96594.59;;;18.11;43.77
40596;BME280;26304;48.794;9.820;2023-03-03T10:47:53;96602.88;;;18.13;44.04
40596;BME280;26304;48.794;9.820;2023-03-03T10:53:47;96601.78;;;18.14;43.72
40596;BME280;26304;48.794;9.820;2023-03-03T10:59:50;96598.06;;;18.19;43.72
40596;BME280;26304;48.794;9.820;2023-03-03T11:05:39;96601.88;;;18.25;44.21
40596;BME280;26304;48.794;9.820;2023-03-03T11:11:33;96606.72;;;18.23;44.26
40596;BME280;26304;48.794;9.820;2023-03-03T11:17:21;96618.03;;;18.24;44.15
40596;BME280;26304;48.794;9.820;2023-03-03T11:23:21;96623.59;;;18.19;44.18
40596;BME280;26304;48.794;9.820;2023-03-03T11:29:25;96619.78;;;18.12;44.04
40596;BME280;26304;48.794;9.820;2023-03-03T11:35:23;96612.63;;;18.09;44.16
40596;BME280;26304;48.794;9.820;2023-03-03T11:41:10;96608.13;;;18.10;44.61
40596;BME280;26304;48.794;9.820;2023-03-03T11:46:59;96605.44;;;18.06;44.20
40596;BME280;26304;48.794;9.820;2023-03-03T11:52:46;96594.94;;;18.06;44.39
40596;BME280;26304;48.794;9.820;2023-03-03T11:58:38;96592.31;;;18.06;44.02
40596;BME280;26304;48.794;9.820;2023-03-03T12:04:26;96581.78;;;18.06;44.58
40596;BME280;26304;48.794;9.820;2023-03-03T12:10:18;96579.91;;;18.10;44.54
40596;BME280;26304;48.794;9.820;2023-03-03T12:16:09;96574.31;;;18.15;43.96
40596;BME280;26304;48.794;9.820;2023-03-03T12:22:10;96575.13;;;18.20;44.47
40596;BME280;26304;48.794;9.820;2023-03-03T12:28:00;96568.53;;;18.37;43.69
40596;BME280;26304;48.794;9.820;2023-03-03T12:33:54;96565.06;;;18.29;44.29
40596;BME280;26304;48.794;9.820;2023-03-03T12:39:44;96565.88;;;18.37;44.27
40596;BME280;26304;48.794;9.820;2023-03-03T12:45:36;96563.63;;;18.39;44.54
40596;BME280;26304;48.794;9.820;2023-03-03T12:51:33;96562.91;;;18.42;44.02
40596;BME280;26304;48.794;9.820;2023-03-03T12:57:28;96556.09;;;18.37;44.33
40596;BME280;26304;48.794;9.820;2023-03-03T13:03:21;96565.66;;;18.56;43.97
40596;BME280;26304;48.794;9.820;2023-03-03T13:09:17;96560.06;;;18.65;44.73
40596;BME280;26304;48.794;9.820;2023-03-03T13:15:11;96556.03;;;18.78;44.54
40596;BME280;26304;48.794;9.820;2023-03-03T13:20:59;96558.22;;;18.69;44.82
40596;BME280;26304;48.794;9.820;2023-03-03T13:26:49;96556.16;;;18.96;44.68
40596;BME280;26304;48.794;9.820;2023-03-03T13:32:41;96547.53;;;19.03;45.02
40596;BME280;26304;48.794;9.820;2023-03-03T13:38:28;96547.91;;;19.01;45.28
40596;BME280;26304;48.794;9.820;2023-03-03T13:44:17;96540.38;;;19.00;45.25
40596;BME280;26304;48.794;9.820;2023-03-03T13:50:12;96543.00;;;19.00;45.23
40596;BME280;26304;48.794;9.820;2023-03-03T13:56:03;96539.25;;;19.01;44.92
40596;BME280;26304;48.794;9.820;2023-03-03T14:01:56;96532.53;;;19.07;45.10
40596;BME280;26304;48.794;9.820;2023-03-03T14:07:48;96524.63;;;19.11;44.25
40596;BME280;26304;48.794;9.820;2023-03-03T14:13:41;96523.13;;;19.10;44.55
40596;BME280;26304;48.794;9.820;2023-03-03T14:19:27;96522.75;;;19.11;44.92
40596;BME280;26304;48.794;9.820;2023-03-03T14:25:14;96521.66;;;18.57;40.81
40596;BME280;26304;48.794;9.820;2023-03-03T14:30:58;96509.69;;;17.77;40.27
40596;BME280;26304;48.794;9.820;2023-03-03T14:36:56;96514.94;;;18.14;38.69
40596;BME280;26304;48.794;9.820;2023-03-03T14:42:46;96521.75;;;18.19;37.85
40596;BME280;26304;48.794;9.820;2023-03-03T14:48:29;96518.28;;;18.60;38.94
40596;BME280;26304;48.794;9.820;2023-03-03T14:54:20;96513.84;;;18.67;39.41
40596;BME280;26304;48.794;9.820;2023-03-03T15:00:28;96518.91;;;18.94;40.01
40596;BME280;26304;48.794;9.820;2023-03-03T15:06:11;96518.22;;;19.08;40.24
40596;BME280;26304;48.794;9.820;2023-03-03T15:11:57;96513.34;;;19.14;40.50
40596;BME280;26304;48.794;9.820;2023-03-03T15:17:43;96508.09;;;19.17;41.36
40596;BME280;26304;48.794;9.820;2023-03-03T15:23:45;96504.34;;;19.22;41.76
40596;BME280;26304;48.794;9.820;2023-03-03T15:29:32;96495.34;;;19.27;42.38
40596;BME280;26304;48.794;9.820;2023-03-03T15:35:30;96499.06;;;19.22;42.54
40596;BME280;26304;48.794;9.820;2023-03-03T15:41:24;96499.09;;;19.26;42.53
40596;BME280;26304;48.794;9.820;2023-03-03T15:47:24;96498.75;;;19.31;42.79
40596;BME280;26304;48.794;9.820;2023-03-03T15:53:26;96508.88;;;19.29;42.86
40596;BME280;26304;48.794;9.820;2023-03-03T15:59:27;96503.59;;;19.25;43.26
40596;BME280;26304;48.794;9.820;2023-03-03T16:05:15;96510.41;;;19.26;43.00
40596;BME280;26304;48.794;9.820;2023-03-03T16:11:06;96507.78;;;19.33;43.11
40596;BME280;26304;48.794;9.820;2023-03-03T16:16:53;96513.41;;;19.28;43.63
40596;BME280;26304;48.794;9.820;2023-03-03T16:22:48;96517.16;;;19.27;43.28
40596;BME280;26304;48.794;9.820;2023-03-03T16:29:08;96532.97;;;19.23;43.85
40596;BME280;26304;48.794;9.820;2023-03-03T16:34:59;96535.97;;;19.15;43.83
40596;BME280;26304;48.794;9.820;2023-03-03T16:40:46;96549.88;;;19.19;44.31
40596;BME280;26304;48.794;9.820;2023-03-03T16:46:37;96555.38;;;18.88;44.28
40596;BME280;26304;48.794;9.820;2023-03-03T16:52:28;96548.13;;;18.78;44.38
40596;BME280;26304;48.794;9.820;2023-03-03T16:58:25;96564.31;;;18.80;43.66
40596;BME280;26304;48.794;9.820;2023-03-03T17:04:19;96562.41;;;18.74;44.13
40596;BME280;26304;48.794;9.820;2023-03-03T17:10:20;96567.25;;;18.68;43.84
40596;BME280;26304;48.794;9.820;2023-03-03T17:16:13;96573.22;;;18.61;44.10
40596;BME280;26304;48.794;9.820;2023-03-03T17:22:07;96580.75;;;18.63;43.99
40596;BME280;26304;48.794;9.820;2023-03-03T17:28:03;96593.78;;;18.90;44.18
40596;BME280;26304;48.794;9.820;2023-03-03T17:33:59;96592.94;;;18.82;44.41
40596;BME280;26304;48.794;9.820;2023-03-03T17:40:04;96600.88;;;18.85;44.46
40596;BME280;26304;48.794;9.820;2023-03-03T17:45:55;96606.50;;;18.84;44.25
40596;BME280;26304;48.794;9.820;2023-03-03T17:51:59;96611.72;;;18.80;44.74
40596;BME280;26304;48.794;9.820;2023-03-03T17:58:07;96620.00;;;18.82;44.75
40596;BME280;26304;48.794;9.820;2023-03-03T18:04:20;96624.25;;;18.91;44.66
40596;BME280;26304;48.794;9.820;2023-03-03T18:10:33;96622.78;;;18.97;44.88
40596;BME280;26304;48.794;9.820;2023-03-03T18:16:31;96618.56;;;18.85;45.10
40596;BME280;26304;48.794;9.820;2023-03-03T18:22:24;96622.38;;;18.87;45.09
40596;BME280;26304;48.794;9.820;2023-03-03T18:28:19;96626.81;;;18.83;45.01
40596;BME280;26304;48.794;9.820;2023-03-03T18:34:08;96629.84;;;18.85;44.73
40596;BME280;26304;48.794;9.820;2023-03-03T18:40:20;96644.16;;;18.84;44.83
40596;BME280;26304;48.794;9.820;2023-03-03T18:46:11;96651.22;;;18.77;45.22
40596;BME280;26304;48.794;9.820;2023-03-03T18:52:17;96667.97;;;18.58;44.72
40596;BME280;26304;48.794;9.820;2023-03-03T18:58:29;96666.44;;;18.53;44.77
40596;BME280;26304;48.794;9.820;2023-03-03T19:04:21;96667.75;;;18.74;44.76
40596;BME280;26304;48.794;9.820;2023-03-03T19:16:32;96685.13;;;18.82;43.95
40596;BME280;26304;48.794;9.820;2023-03-03T19:22:23;96685.53;;;18.84;44.10
40596;BME280;26304;48.794;9.820;2023-03-03T19:28:29;96685.94;;;18.86;45.21
40596;BME280;26304;48.794;9.820;2023-03-03T19:34:22;96687.44;;;18.87;45.23
40596;BME280;26304;48.794;9.820;2023-03-03T19:40:15;96686.09;;;19.08;47.14
40596;BME280;26304;48.794;9.820;2023-03-03T19:46:18;96684.09;;;18.94;46.07
40596;BME280;26304;48.794;9.820;2023-03-03T19:52:13;96685.47;;;18.39;44.60
40596;BME280;26304;48.794;9.820;2023-03-03T19:58:13;96682.69;;;18.25;43.48
40596;BME280;26304;48.794;9.820;2023-03-03T20:04:29;96683.72;;;18.17;43.37
40596;BME280;26304;48.794;9.820;2023-03-03T20:10:36;96688.31;;;17.63;40.27
40596;BME280;26304;48.794;9.820;2023-03-03T20:16:26;96681.44;;;17.28;38.59
40596;BME280;26304;48.794;9.820;2023-03-03T20:22:25;96695.00;;;17.06;38.14
40596;BME280;26304;48.794;9.820;2023-03-03T20:28:28;96686.59;;;16.97;38.04
40596;BME280;26304;48.794;9.820;2023-03-03T20:34:20;96699.13;;;16.84;37.39
40596;BME280;26304;48.794;9.820;2023-03-03T20:40:19;96697.66;;;16.64;37.51
40596;BME280;26304;48.794;9.820;2023-03-03T20:46:14;96702.13;;;16.40;37.64
40596;BME280;26304;48.794;9.820;2023-03-03T20:52:03;96695.38;;;16.20;36.83
40596;BME280;26304;48.794;9.820;2023-03-03T20:57:57;96704.81;;;16.05;37.52
40596;BME280;26304;48.794;9.820;2023-03-03T21:03:42;96691.84;;;15.92;37.19
40596;BME280;26304;48.794;9.820;2023-03-03T21:09:28;96699.84;;;15.80;37.38
40596;BME280;26304;48.794;9.820;2023-03-03T21:15:23;96694.63;;;15.48;37.68
40596;BME280;26304;48.794;9.820;2023-03-03T21:21:07;96704.75;;;15.66;37.57
40596;BME280;26304;48.794;9.820;2023-03-03T21:26:53;96704.47;;;15.71;38.51
40596;BME280;26304;48.794;9.820;2023-03-03T21:32:39;96708.50;;;15.84;39.08
40596;BME280;26304;48.794;9.820;2023-03-03T21:38:30;96705.41;;;15.78;39.34
40596;BME280;26304;48.794;9.820;2023-03-03T21:44:28;96711.31;;;15.75;39.82
40596;BME280;26304;48.794;9.820;2023-03-03T21:50:12;96714.09;;;15.67;40.00
40596;BME280;26304;48.794;9.820;2023-03-03T21:55:55;96713.13;;;15.55;39.68
40596;BME280;26304;48.794;9.820;2023-03-03T22:01:37;96712.31;;;15.19;40.21
40596;BME280;26304;48.794;9.820;2023-03-03T22:07:21;96715.41;;;15.41;39.63
40596;BME280;26304;48.794;9.820;2023-03-03T22:13:03;96711.75;;;15.61;39.84
40596;BME280;26304;48.794;9.820;2023-03-03T22:18:45;96709.41;;;15.56;40.15
40596;BME280;26304;48.794;9.820;2023-03-03T22:24:30;96716.00;;;15.50;40.60
40596;BME280;26304;48.794;9.820;2023-03-03T22:30:13;96713.66;;;15.45;39.60
40596;BME280;26304;48.794;9.820;2023-03-03T22:35:55;96706.53;;;15.46;39.71
40596;BME280;26304;48.794;9.820;2023-03-03T22:41:39;96710.19;;;15.41;40.81
40596;BME280;26304;48.794;9.820;2023-03-03T22:47:21;96711.53;;;15.35;40.57
40596;BME280;26304;48.794;9.820;2023-03-03T22:53:03;96713.75;;;15.33;40.84
40596;BME280;26304;48.794;9.820;2023-03-03T22:58:47;96718.38;;;15.39;40.20
40596;BME280;26304;48.794;9.820;2023-03-03T23:04:30;96719.66;;;15.30;40.90
40596;BME280;26304;48.794;9.820;2023-03-03T23:10:13;96726.00;;;15.29;40.99
40596;BME280;26304;48.794;9.820;2023-03-03T23:15:57;96717.31;;;15.24;40.70
40596;BME280;26304;48.794;9.820;2023-03-03T23:21:40;96732.41;;;15.15;41.19
40596;BME280;26304;48.794;9.820;2023-03-03T23:27:22;96734.88;;;15.08;40.91
40596;BME280;26304;48.794;9.820;2023-03-03T23:33:06;96734.03;;;15.04;41.50
40596;BME280;26304;48.794;9.820;2023-03-03T23:38:49;96727.97;;;15.00;41.65
40596;BME280;26304;48.794;9.820;2023-03-03T23:44:31;96732.00;;;14.97;41.15
40596;BME280;26304;48.794;9.820;2023-03-03T23:50:15;96736.22;;;15.02;42.10
40596;BME280;26304;48.794;9.820;2023-03-03T23:55:57;96735.63;;;14.93;41.93
